LFLY/LYN METAR and TAF weather

Enter ICAO airport designator
Station Type Date Time Source
LFLY METAR 2021/01/17 19:30 UTC NOAA

LFLY 171930Z AUTO VRB03KT 9999 OVC049 02/01 Q1028 TEMPO BKN008 OVC020 BECMG 3000 BR


Station Type Date Time Source
LFLY Decoded METAR 2021/01/17 19:30 UTC NOAA

Lyon / Bron, France (LFLY) 45-43N 004-57E 201M
Jan 17, 2021 - 02:30 PM EST / 2021.01.17 1930 UTC
Wind: Variable at 3 MPH (3 KT):0
Visibility: greater than 7 mile(s):0
Sky conditions: overcast
Temperature: 35 F (2 C)
Dew Point: 33 F (1 C)
Relative Humidity: 93%
Pressure (altimeter): 30.36 in. Hg (1028 hPa)
ob: LFLY 171930Z AUTO VRB03KT 9999 OVC049 02/01 Q1028 TEMPO BKN008 OVC020 BECMG 3000 BR
cycle: 19

Station Type Date Time Source
LFLY TAF 2021/01/17 18:21 UTC NOAA

TAF LFLY 171700Z 1718/1818 36005KT 9999 SCT008 BKN030
BECMG 1719/1721 3000 BR
TEMPO 1721/1812 BKN008 OVC020 PROB30
TEMPO 1803/1809 1200 OVC004
BECMG 1812/1815 CAVOK

Example: see airport list